createdAt,value
2018-11-03T00:00:17.955Z,7.28
2018-11-03T00:00:59.107Z,7.45
2018-11-03T00:01:34.163Z,6.20
2018-11-03T00:02:06.836Z,7.55
2018-11-03T00:02:39.463Z,7.30
2018-11-03T00:03:12.078Z,6.75
2018-11-03T00:03:44.672Z,7.20
2018-11-03T00:04:17.259Z,7.30
2018-11-03T00:04:49.878Z,7.95
2018-11-03T00:05:22.452Z,7.45
2018-11-03T00:05:55.507Z,7.30
2018-11-03T00:06:28.114Z,7.40
2018-11-03T00:07:00.722Z,7.08
2018-11-03T00:07:33.338Z,6.95
2018-11-03T00:08:05.974Z,6.80
2018-11-03T00:08:38.612Z,7.22
2018-11-03T00:09:11.349Z,7.35
2018-11-03T00:09:43.923Z,6.87
2018-11-03T00:10:16.530Z,7.65
2018-11-03T00:10:49.183Z,7.53
2018-11-03T00:11:21.784Z,7.28
2018-11-03T00:11:54.383Z,6.87
2018-11-03T00:12:26.971Z,7.15
2018-11-03T00:12:59.618Z,7.75
2018-11-03T00:13:32.240Z,6.50
2018-11-03T00:14:05.083Z,6.42
2018-11-03T00:14:37.672Z,7.25
2018-11-03T00:15:10.335Z,7.10
2018-11-03T00:15:42.963Z,7.30
2018-11-03T00:16:15.542Z,7.37
2018-11-03T00:16:48.127Z,7.00
2018-11-03T00:17:20.699Z,7.50
2018-11-03T00:17:53.293Z,7.55
2018-11-03T00:18:25.931Z,8.00
2018-11-03T00:18:58.580Z,7.22
2018-11-03T00:19:31.243Z,7.40
2018-11-03T00:20:04.671Z,7.83
2018-11-03T00:20:37.432Z,7.83
2018-11-03T00:21:09.999Z,7.45
2018-11-03T00:21:42.635Z,6.47
2018-11-03T00:22:15.226Z,7.30
2018-11-03T00:22:47.820Z,6.87
2018-11-03T00:23:20.663Z,7.00
2018-11-03T00:23:53.305Z,6.60
2018-11-03T00:24:25.927Z,6.45
2018-11-03T00:24:58.544Z,7.40
2018-11-03T00:25:31.150Z,7.40
2018-11-03T00:26:03.888Z,7.12
2018-11-03T00:26:36.447Z,7.80
2018-11-03T00:27:09.044Z,7.75
2018-11-03T00:27:41.664Z,7.03
2018-11-03T00:28:14.250Z,7.37
2018-11-03T00:28:46.891Z,7.50
2018-11-03T00:29:19.534Z,7.70
2018-11-03T00:29:52.130Z,7.03
2018-11-03T00:30:24.743Z,7.28
2018-11-03T00:30:57.353Z,7.30
2018-11-03T00:31:29.935Z,6.83
2018-11-03T00:32:02.532Z,7.20
2018-11-03T00:32:35.145Z,7.75
2018-11-03T00:33:07.775Z,7.17
2018-11-03T00:33:40.351Z,7.60
2018-11-03T00:34:13.066Z,7.15
2018-11-03T00:34:45.670Z,7.00
2018-11-03T00:35:18.239Z,6.70
2018-11-03T00:35:50.847Z,6.62
2018-11-03T00:36:23.447Z,7.28
2018-11-03T00:36:56.055Z,7.45
2018-11-03T00:37:28.652Z,7.15
2018-11-03T00:38:01.228Z,7.22
2018-11-03T00:38:33.823Z,7.50
2018-11-03T00:39:08.527Z,7.00
2018-11-03T00:39:41.159Z,7.10
2018-11-03T00:40:14.578Z,7.53
2018-11-03T00:40:47.208Z,7.87
2018-11-03T00:41:19.803Z,7.55
2018-11-03T00:41:52.384Z,7.30
2018-11-03T00:42:25.094Z,7.30
2018-11-03T00:42:57.707Z,7.70
2018-11-03T00:43:30.302Z,6.80
2018-11-03T00:44:02.905Z,7.65
2018-11-03T00:44:35.525Z,7.47
2018-11-03T00:45:09.531Z,7.30
2018-11-03T00:45:42.158Z,6.92
2018-11-03T00:46:14.780Z,7.45
2018-11-03T00:46:47.419Z,7.70
2018-11-03T00:47:20.023Z,7.17
2018-11-03T00:47:52.648Z,8.10
2018-11-03T00:48:25.227Z,7.22
2018-11-03T00:48:57.820Z,7.22
2018-11-03T00:49:30.395Z,7.20
2018-11-03T00:50:03.106Z,7.75
2018-11-03T00:50:35.748Z,7.62
2018-11-03T00:51:08.412Z,7.70
2018-11-03T00:51:40.996Z,7.05
2018-11-03T00:52:13.588Z,7.08
2018-11-03T00:52:46.183Z,7.95
2018-11-03T00:53:18.783Z,7.00
2018-11-03T00:53:51.379Z,7.67
2018-11-03T00:54:24.268Z,7.50
2018-11-03T00:54:56.939Z,7.28
2018-11-03T00:55:29.566Z,6.60
2018-11-03T00:56:02.164Z,7.08
2018-11-03T00:56:34.876Z,7.35
2018-11-03T00:57:07.460Z,6.83
2018-11-03T00:57:40.690Z,7.67
2018-11-03T00:58:13.274Z,7.00
2018-11-03T00:58:45.842Z,7.25
2018-11-03T00:59:18.411Z,7.50
2018-11-03T00:59:51.007Z,6.58
2018-11-03T01:00:23.578Z,6.45
2018-11-03T01:00:56.158Z,7.08
2018-11-03T01:01:28.788Z,7.53
2018-11-03T01:02:01.447Z,7.58
2018-11-03T01:02:34.038Z,6.70
2018-11-03T01:03:06.636Z,8.38
2018-11-03T01:03:39.268Z,6.90
2018-11-03T01:04:11.880Z,6.83
2018-11-03T01:04:44.466Z,8.05
2018-11-03T01:05:17.102Z,7.00
2018-11-03T01:05:49.676Z,7.45
2018-11-03T01:06:22.271Z,7.47
2018-11-03T01:06:54.948Z,7.47
2018-11-03T01:07:28.270Z,6.78
2018-11-03T01:08:00.846Z,7.45
2018-11-03T01:08:33.407Z,7.00
2018-11-03T01:09:07.131Z,7.08
2018-11-03T01:09:39.728Z,7.05
2018-11-03T01:10:12.474Z,6.97
2018-11-03T01:10:45.096Z,6.80
2018-11-03T01:11:17.680Z,7.95
2018-11-03T01:11:50.251Z,6.97
2018-11-03T01:12:22.868Z,7.03
2018-11-03T01:12:55.472Z,6.22
2018-11-03T01:13:28.106Z,7.40
2018-11-03T01:14:00.691Z,7.00
2018-11-03T01:14:33.329Z,7.08
2018-11-03T01:15:07.775Z,7.17
2018-11-03T01:15:40.367Z,6.53
2018-11-03T01:16:12.931Z,7.60
2018-11-03T01:16:45.542Z,6.15
2018-11-03T01:17:18.242Z,6.00
2018-11-03T01:17:51.231Z,6.25
2018-11-03T01:18:23.951Z,6.83
2018-11-03T01:18:56.783Z,6.80
2018-11-03T01:19:29.382Z,6.70
2018-11-03T01:20:01.991Z,6.67
2018-11-03T01:20:34.591Z,7.33
2018-11-03T01:21:07.194Z,7.25
2018-11-03T01:21:39.803Z,6.92
2018-11-03T01:22:12.415Z,7.05
2018-11-03T01:22:45.189Z,6.78
2018-11-03T01:23:17.775Z,7.20
2018-11-03T01:23:50.463Z,6.65
2018-11-03T01:24:22.944Z,6.80
2018-11-03T01:24:55.520Z,6.83
2018-11-03T01:25:28.163Z,7.10
2018-11-03T01:26:00.740Z,6.58
2018-11-03T01:26:33.327Z,7.37
2018-11-03T01:27:05.995Z,7.87
2018-11-03T01:27:38.730Z,6.60
2018-11-03T01:28:11.300Z,7.37
2018-11-03T01:28:43.874Z,6.65
2018-11-03T01:29:16.495Z,7.70
2018-11-03T01:29:49.114Z,7.50
2018-11-03T01:30:21.703Z,6.45
2018-11-03T01:30:54.306Z,7.08
2018-11-03T01:31:26.911Z,7.58
2018-11-03T01:31:59.498Z,7.20
2018-11-03T01:32:32.187Z,7.42
2018-11-03T01:33:04.830Z,7.53
2018-11-03T01:33:37.455Z,7.33
2018-11-03T01:34:10.049Z,7.25
2018-11-03T01:34:42.671Z,7.20
2018-11-03T01:35:15.308Z,7.30
2018-11-03T01:35:47.898Z,8.05
2018-11-03T01:36:20.478Z,7.97
2018-11-03T01:36:53.106Z,7.37
2018-11-03T01:37:25.680Z,7.37
2018-11-03T01:37:58.272Z,7.47
2018-11-03T01:38:30.840Z,7.55
2018-11-03T01:39:04.703Z,7.12
2018-11-03T01:39:37.295Z,7.40
2018-11-03T01:40:11.492Z,7.42
2018-11-03T01:40:44.136Z,6.65
2018-11-03T01:41:16.730Z,7.95
2018-11-03T01:41:49.361Z,7.15
2018-11-03T01:42:21.943Z,6.83
2018-11-03T01:42:54.510Z,8.10
2018-11-03T01:43:27.125Z,7.08
2018-11-03T01:43:59.745Z,7.50
2018-11-03T01:44:32.378Z,7.22
2018-11-03T01:45:05.133Z,7.08
2018-11-03T01:45:37.808Z,6.37
2018-11-03T01:46:10.379Z,6.75
2018-11-03T01:46:42.993Z,6.90
2018-11-03T01:47:15.609Z,7.05
2018-11-03T01:47:48.237Z,7.25
2018-11-03T01:48:20.820Z,7.05
2018-11-03T01:48:53.455Z,7.55
2018-11-03T01:49:26.031Z,6.95
2018-11-03T01:49:58.663Z,8.20
2018-11-03T01:50:31.274Z,7.15
2018-11-03T01:51:03.974Z,6.85
2018-11-03T01:51:36.590Z,6.55
2018-11-03T01:52:09.219Z,6.95
2018-11-03T01:52:41.979Z,7.55
2018-11-03T01:53:14.623Z,6.50
2018-11-03T01:53:47.220Z,7.70
2018-11-03T01:54:19.823Z,7.03
2018-11-03T01:54:52.469Z,6.95
2018-11-03T01:55:25.093Z,6.35
2018-11-03T01:55:57.685Z,6.70
2018-11-03T01:56:30.317Z,6.80
2018-11-03T01:57:02.898Z,7.03
2018-11-03T01:57:35.923Z,6.65
2018-11-03T01:58:08.540Z,5.50
2018-11-03T01:58:41.135Z,5.50
2018-11-03T01:59:13.759Z,6.00
2018-11-03T01:59:46.318Z,5.25
2018-11-03T02:00:18.904Z,5.90
2018-11-03T02:00:51.483Z,5.53
2018-11-03T02:01:24.068Z,5.85
2018-11-03T02:01:56.808Z,4.85
2018-11-03T02:02:29.695Z,5.40
2018-11-03T02:03:02.278Z,5.60
2018-11-03T02:03:34.870Z,5.53
2018-11-03T02:04:07.446Z,5.35
2018-11-03T02:04:40.255Z,5.22
2018-11-03T02:05:12.845Z,5.67
2018-11-03T02:05:45.436Z,5.75
2018-11-03T02:06:18.271Z,5.10
2018-11-03T02:06:50.876Z,5.85
2018-11-03T02:07:23.519Z,5.35
2018-11-03T02:07:56.171Z,5.65
2018-11-03T02:08:28.756Z,5.20
2018-11-03T02:09:01.329Z,5.83
2018-11-03T02:09:33.938Z,5.08
2018-11-03T02:10:07.663Z,5.30
2018-11-03T02:10:40.244Z,6.10
2018-11-03T02:11:12.840Z,5.20
2018-11-03T02:11:45.442Z,4.80
2018-11-03T02:12:18.044Z,5.80
2018-11-03T02:12:50.665Z,5.75
2018-11-03T02:13:23.255Z,5.00
2018-11-03T02:13:55.815Z,5.70
2018-11-03T02:14:28.421Z,5.42
2018-11-03T02:15:01.083Z,6.37
2018-11-03T02:15:33.668Z,5.33
2018-11-03T02:16:06.562Z,5.30
2018-11-03T02:16:39.557Z,5.85
2018-11-03T02:17:12.207Z,5.75
2018-11-03T02:17:44.821Z,5.87
2018-11-03T02:18:17.457Z,5.53
2018-11-03T02:18:50.091Z,4.78
2018-11-03T02:19:25.302Z,5.40
2018-11-03T02:19:57.934Z,5.90
2018-11-03T02:20:30.507Z,5.45
2018-11-03T02:21:03.151Z,5.87
2018-11-03T02:21:35.754Z,5.95
2018-11-03T02:22:08.351Z,5.60
2018-11-03T02:22:40.948Z,5.37
2018-11-03T02:23:13.531Z,5.30
2018-11-03T02:23:46.170Z,5.42
2018-11-03T02:24:18.782Z,5.80
2018-11-03T02:24:51.387Z,5.80
2018-11-03T02:25:23.967Z,5.75
2018-11-03T02:25:56.580Z,5.87
2018-11-03T02:26:29.197Z,5.90
2018-11-03T02:27:01.825Z,5.25
2018-11-03T02:27:34.426Z,5.25
2018-11-03T02:28:07.223Z,6.90
2018-11-03T02:28:40.064Z,6.80
2018-11-03T02:29:12.700Z,6.25
2018-11-03T02:29:45.326Z,7.80
2018-11-03T02:30:17.916Z,6.37
2018-11-03T02:30:50.487Z,6.60
2018-11-03T02:31:23.092Z,6.62
2018-11-03T02:31:55.687Z,6.67
2018-11-03T02:32:28.316Z,5.62
2018-11-03T02:33:00.883Z,6.12
2018-11-03T02:33:33.461Z,5.87
2018-11-03T02:34:06.163Z,5.53
2018-11-03T02:34:38.735Z,5.70
2018-11-03T02:35:11.795Z,4.72
2018-11-03T02:35:44.435Z,6.22
2018-11-03T02:36:17.053Z,5.85
2018-11-03T02:36:49.659Z,5.42
2018-11-03T02:37:22.235Z,4.78
2018-11-03T02:37:54.817Z,5.50
2018-11-03T02:38:27.392Z,5.62
2018-11-03T02:38:59.992Z,4.80
2018-11-03T02:39:32.582Z,4.90
2018-11-03T02:40:06.572Z,5.22
2018-11-03T02:40:39.208Z,5.22
2018-11-03T02:41:11.806Z,5.55
2018-11-03T02:41:44.408Z,5.42
2018-11-03T02:42:17.034Z,4.72
2018-11-03T02:42:49.646Z,4.85
2018-11-03T02:43:22.243Z,4.97
2018-11-03T02:43:54.834Z,4.97
2018-11-03T02:44:27.458Z,5.28
2018-11-03T02:45:00.028Z,5.60
2018-11-03T02:45:32.632Z,5.25
2018-11-03T02:46:05.366Z,4.70
2018-11-03T02:46:38.196Z,5.33
2018-11-03T02:47:10.779Z,5.45
2018-11-03T02:47:43.381Z,5.00
2018-11-03T02:48:15.993Z,5.10
2018-11-03T02:48:48.584Z,6.00
2018-11-03T02:49:21.173Z,5.45
2018-11-03T02:49:53.809Z,5.25
2018-11-03T02:50:26.413Z,5.40
2018-11-03T02:50:59.078Z,5.15
2018-11-03T02:51:31.652Z,4.80
2018-11-03T02:52:04.318Z,5.55
2018-11-03T02:52:36.922Z,5.53
2018-11-03T02:53:09.510Z,5.40
2018-11-03T02:53:42.105Z,5.30
2018-11-03T02:54:14.731Z,5.42
2018-11-03T02:54:47.346Z,5.40
2018-11-03T02:55:19.944Z,5.92
2018-11-03T02:55:52.552Z,5.78
2018-11-03T02:56:25.239Z,5.17
2018-11-03T02:56:57.816Z,5.85
2018-11-03T02:57:30.439Z,5.30
2018-11-03T02:58:03.040Z,5.20
2018-11-03T02:58:35.634Z,5.87
2018-11-03T02:59:08.550Z,5.75
2018-11-03T02:59:41.136Z,5.37
2018-11-03T03:00:13.742Z,5.72
2018-11-03T03:00:46.328Z,6.08
2018-11-03T03:01:18.912Z,6.45
2018-11-03T03:01:51.548Z,6.78
2018-11-03T03:02:24.156Z,6.17
2018-11-03T03:02:56.759Z,5.80
2018-11-03T03:03:29.383Z,5.97
2018-11-03T03:04:02.046Z,5.90
2018-11-03T03:04:34.663Z,5.87
2018-11-03T03:05:08.171Z,6.47
2018-11-03T03:05:40.759Z,6.90
2018-11-03T03:06:13.371Z,6.37
2018-11-03T03:06:45.980Z,6.45
2018-11-03T03:07:18.607Z,6.55
2018-11-03T03:07:51.232Z,6.92
2018-11-03T03:08:23.811Z,6.97
2018-11-03T03:08:56.414Z,6.12
2018-11-03T03:09:29.007Z,7.03
2018-11-03T03:10:01.622Z,6.97
2018-11-03T03:10:34.210Z,6.03
2018-11-03T03:11:06.788Z,7.67
2018-11-03T03:11:39.386Z,6.50
2018-11-03T03:12:11.991Z,6.62
2018-11-03T03:12:44.667Z,6.80
2018-11-03T03:13:17.304Z,7.25
2018-11-03T03:13:49.889Z,7.10
2018-11-03T03:14:22.459Z,6.40
2018-11-03T03:14:55.035Z,6.78
2018-11-03T03:15:27.627Z,7.12
2018-11-03T03:16:00.230Z,7.40
2018-11-03T03:16:32.820Z,8.20
2018-11-03T03:17:05.449Z,7.28
2018-11-03T03:17:38.107Z,7.67
2018-11-03T03:18:10.739Z,7.20
2018-11-03T03:18:43.651Z,8.08
2018-11-03T03:19:16.263Z,7.55
2018-11-03T03:19:48.873Z,7.62
2018-11-03T03:20:21.475Z,7.80
2018-11-03T03:20:54.102Z,7.53
2018-11-03T03:21:26.695Z,7.00
2018-11-03T03:21:59.304Z,7.72
2018-11-03T03:22:31.894Z,7.80
2018-11-03T03:23:04.580Z,6.87
2018-11-03T03:23:37.227Z,7.78
2018-11-03T03:24:09.836Z,8.13
2018-11-03T03:24:42.422Z,7.85
2018-11-03T03:25:15.060Z,6.72
2018-11-03T03:25:47.654Z,7.62
2018-11-03T03:26:20.238Z,8.25
2018-11-03T03:26:52.862Z,7.80
2018-11-03T03:27:25.484Z,7.55
2018-11-03T03:27:58.106Z,7.65
2018-11-03T03:28:30.751Z,8.25
2018-11-03T03:29:03.377Z,6.78
2018-11-03T03:29:36.047Z,8.00
2018-11-03T03:30:09.279Z,7.95
2018-11-03T03:30:41.871Z,7.10
2018-11-03T03:31:14.465Z,8.28
2018-11-03T03:31:47.115Z,8.83
2018-11-03T03:32:19.703Z,8.33
2018-11-03T03:32:52.283Z,7.72
2018-11-03T03:33:24.921Z,8.30
2018-11-03T03:33:57.548Z,7.20
2018-11-03T03:34:30.198Z,8.70
2018-11-03T03:35:02.819Z,7.35
2018-11-03T03:35:35.415Z,6.85
2018-11-03T03:36:08.049Z,7.35
2018-11-03T03:36:40.687Z,7.12
2018-11-03T03:37:13.295Z,7.62
2018-11-03T03:37:45.876Z,7.92
2018-11-03T03:38:18.524Z,8.15
2018-11-03T03:38:51.165Z,8.05
2018-11-03T03:39:23.744Z,8.28
2018-11-03T03:39:56.362Z,8.55
2018-11-03T03:40:29.006Z,9.25
2018-11-03T03:41:01.624Z,8.75
2018-11-03T03:41:34.203Z,9.05
2018-11-03T03:42:06.828Z,7.67
2018-11-03T03:42:39.535Z,8.50
2018-11-03T03:43:12.186Z,8.45
2018-11-03T03:43:44.788Z,8.63
2018-11-03T03:44:17.409Z,8.50
2018-11-03T03:44:50.092Z,8.33
2018-11-03T03:45:22.731Z,8.50
2018-11-03T03:45:55.377Z,8.60
2018-11-03T03:46:27.971Z,9.60
2018-11-03T03:47:00.581Z,8.88
2018-11-03T03:47:33.172Z,9.65
2018-11-03T03:48:05.847Z,9.53
2018-11-03T03:48:38.423Z,9.00
2018-11-03T03:49:11.015Z,8.78
2018-11-03T03:49:43.631Z,9.45
2018-11-03T03:50:16.232Z,9.78
2018-11-03T03:50:48.851Z,9.00
2018-11-03T03:51:21.422Z,9.50
2018-11-03T03:51:53.999Z,9.55
2018-11-03T03:52:26.596Z,9.95
2018-11-03T03:52:59.170Z,9.15
2018-11-03T03:53:31.747Z,9.95
2018-11-03T03:54:04.523Z,9.43
2018-11-03T03:54:37.094Z,9.85
2018-11-03T03:55:09.710Z,9.50
2018-11-03T03:55:42.284Z,9.20
2018-11-03T03:56:14.922Z,9.58
2018-11-03T03:56:47.495Z,10.35
2018-11-03T03:57:20.082Z,9.20
2018-11-03T03:57:52.666Z,9.20
2018-11-03T03:58:25.268Z,9.33
2018-11-03T03:58:57.875Z,9.35
2018-11-03T03:59:30.487Z,9.73
2018-11-03T04:00:03.149Z,9.65
2018-11-03T04:00:35.727Z,10.32
2018-11-03T04:01:08.346Z,9.38
2018-11-03T04:01:40.947Z,10.70
2018-11-03T04:02:13.562Z,9.65
2018-11-03T04:02:46.196Z,9.38
2018-11-03T04:03:18.775Z,9.23
2018-11-03T04:03:51.388Z,9.48
2018-11-03T04:04:24.029Z,10.10
2018-11-03T04:04:56.614Z,9.13
2018-11-03T04:05:29.228Z,9.28
2018-11-03T04:06:01.860Z,9.40
2018-11-03T04:06:34.545Z,9.93
2018-11-03T04:07:07.138Z,9.20
2018-11-03T04:07:39.763Z,8.90
2018-11-03T04:08:12.359Z,9.35
2018-11-03T04:08:44.925Z,9.35
2018-11-03T04:09:17.544Z,9.53
2018-11-03T04:09:50.118Z,10.35
2018-11-03T04:10:22.714Z,9.83
2018-11-03T04:10:55.340Z,9.68
2018-11-03T04:11:27.979Z,9.55
2018-11-03T04:12:00.590Z,9.45
2018-11-03T04:12:33.190Z,9.70
2018-11-03T04:13:05.880Z,9.55
2018-11-03T04:13:38.506Z,9.83
2018-11-03T04:14:11.127Z,9.13
2018-11-03T04:14:43.768Z,9.90
2018-11-03T04:15:16.368Z,9.83
2018-11-03T04:15:48.955Z,10.10
2018-11-03T04:16:21.528Z,9.38
2018-11-03T04:16:54.169Z,9.03
2018-11-03T04:17:26.763Z,10.05
2018-11-03T04:17:59.375Z,10.55
2018-11-03T04:18:31.964Z,10.05
2018-11-03T04:19:04.761Z,10.13
2018-11-03T04:19:37.371Z,10.00
2018-11-03T04:20:10.013Z,9.43
2018-11-03T04:20:42.637Z,9.60
2018-11-03T04:21:20.341Z,9.35
2018-11-03T04:21:52.954Z,10.58
2018-11-03T04:22:25.567Z,10.15
2018-11-03T04:22:58.199Z,9.20
2018-11-03T04:23:30.820Z,9.50
2018-11-03T04:24:03.425Z,10.23
2018-11-03T04:24:36.031Z,9.65
2018-11-03T04:25:08.638Z,10.15
2018-11-03T04:25:41.230Z,9.23
2018-11-03T04:26:13.911Z,9.80
2018-11-03T04:26:46.523Z,9.45
2018-11-03T04:27:19.134Z,9.18
2018-11-03T04:27:51.757Z,10.68
2018-11-03T04:28:24.335Z,9.65
2018-11-03T04:28:57.488Z,9.23
2018-11-03T04:29:30.092Z,9.25
2018-11-03T04:30:03.471Z,9.80
2018-11-03T04:30:36.047Z,9.03
2018-11-03T04:31:08.639Z,9.70
2018-11-03T04:31:41.263Z,9.50
2018-11-03T04:32:13.865Z,10.08
2018-11-03T04:32:46.474Z,9.43
2018-11-03T04:33:19.094Z,9.75
2018-11-03T04:33:51.700Z,9.30
2018-11-03T04:34:24.327Z,9.98
2018-11-03T04:34:56.936Z,9.63
2018-11-03T04:35:29.532Z,9.93
2018-11-03T04:36:02.139Z,9.13
2018-11-03T04:36:34.720Z,9.78
2018-11-03T04:37:07.360Z,8.95
2018-11-03T04:37:40.111Z,10.13
2018-11-03T04:38:12.720Z,10.00
2018-11-03T04:38:45.307Z,9.30
2018-11-03T04:39:17.866Z,9.78
2018-11-03T04:39:50.483Z,9.53
2018-11-03T04:40:23.109Z,9.25
2018-11-03T04:40:55.712Z,9.73
2018-11-03T04:41:28.282Z,9.93
2018-11-03T04:42:00.862Z,10.25
2018-11-03T04:42:33.472Z,9.90
2018-11-03T04:43:06.039Z,9.43
2018-11-03T04:43:38.692Z,10.23
2018-11-03T04:44:11.267Z,8.98
2018-11-03T04:44:43.924Z,10.80
2018-11-03T04:45:16.607Z,9.85
2018-11-03T04:45:49.167Z,9.98
2018-11-03T04:46:21.750Z,10.05
2018-11-03T04:46:54.315Z,10.28
2018-11-03T04:47:26.932Z,9.93
2018-11-03T04:47:59.557Z,9.43
2018-11-03T04:48:32.180Z,9.95
2018-11-03T04:49:04.899Z,9.55
2018-11-03T04:49:37.457Z,10.35
2018-11-03T04:50:10.432Z,10.53
2018-11-03T04:50:43.091Z,9.90
2018-11-03T04:51:15.692Z,10.30
2018-11-03T04:51:48.321Z,9.98
2018-11-03T04:52:20.927Z,8.88
2018-11-03T04:52:53.544Z,10.53
2018-11-03T04:53:26.162Z,11.20
2018-11-03T04:53:58.815Z,10.70
2018-11-03T04:54:31.459Z,9.20
2018-11-03T04:55:04.532Z,9.63
2018-11-03T04:55:37.063Z,9.25
2018-11-03T04:56:09.702Z,9.63
2018-11-03T04:56:42.344Z,9.58
2018-11-03T04:57:15.027Z,11.20
2018-11-03T04:57:47.630Z,9.28
2018-11-03T04:58:20.223Z,9.85
2018-11-03T04:58:52.850Z,9.83
2018-11-03T04:59:25.435Z,10.15
2018-11-03T04:59:58.056Z,10.35
2018-11-03T05:00:30.645Z,10.25
2018-11-03T05:01:03.272Z,10.35
2018-11-03T05:01:35.867Z,10.63
2018-11-03T05:02:08.516Z,8.68
2018-11-03T05:02:41.110Z,10.75
2018-11-03T05:03:13.678Z,10.03
2018-11-03T05:03:46.288Z,10.88
2018-11-03T05:04:18.922Z,11.40
2018-11-03T05:04:51.515Z,10.05
2018-11-03T05:05:24.130Z,10.45
2018-11-03T05:05:56.806Z,10.40
2018-11-03T05:06:29.367Z,9.90
2018-11-03T05:07:02.034Z,9.30
2018-11-03T05:07:34.927Z,9.68
2018-11-03T05:08:07.503Z,10.25
2018-11-03T05:08:40.097Z,10.70
2018-11-03T05:09:12.922Z,10.58
2018-11-03T05:09:45.608Z,10.72
2018-11-03T05:10:18.228Z,10.88
2018-11-03T05:10:50.815Z,10.80
2018-11-03T05:11:23.405Z,11.40
2018-11-03T05:11:56.028Z,10.50
2018-11-03T05:12:28.639Z,10.55
2018-11-03T05:13:01.215Z,11.48
2018-11-03T05:13:33.936Z,11.15
2018-11-03T05:14:07.384Z,11.38
2018-11-03T05:14:39.974Z,10.03
2018-11-03T05:15:12.596Z,10.68
2018-11-03T05:15:45.186Z,10.95
2018-11-03T05:16:17.771Z,9.60
2018-11-03T05:16:50.337Z,10.90
2018-11-03T05:17:22.930Z,9.45
2018-11-03T05:17:55.534Z,10.58
2018-11-03T05:18:28.135Z,10.80
2018-11-03T05:19:00.750Z,9.95
2018-11-03T05:19:33.346Z,11.43
2018-11-03T05:20:05.988Z,10.48
2018-11-03T05:20:38.567Z,9.75
2018-11-03T05:21:11.256Z,10.82
2018-11-03T05:21:43.823Z,11.28
2018-11-03T05:22:16.402Z,10.45
2018-11-03T05:22:48.996Z,9.23
2018-11-03T05:23:21.693Z,9.85
2018-11-03T05:23:54.291Z,10.13
2018-11-03T05:24:26.926Z,9.85
2018-11-03T05:24:59.494Z,10.35
2018-11-03T05:25:32.136Z,10.68
2018-11-03T05:26:05.200Z,10.85
2018-11-03T05:26:37.807Z,10.20
2018-11-03T05:27:10.423Z,10.43
2018-11-03T05:27:43.010Z,10.38
2018-11-03T05:28:15.591Z,10.35
2018-11-03T05:28:48.190Z,10.55
2018-11-03T05:29:20.766Z,10.65
2018-11-03T05:29:53.384Z,11.35
2018-11-03T05:30:25.982Z,9.95
2018-11-03T05:30:58.575Z,9.25
2018-11-03T05:31:31.205Z,10.90
2018-11-03T05:32:03.858Z,9.68
2018-11-03T05:32:36.874Z,10.25
2018-11-03T05:33:09.461Z,10.50
2018-11-03T05:33:42.131Z,10.43
2018-11-03T05:34:14.751Z,10.35
2018-11-03T05:34:47.363Z,10.00
2018-11-03T05:35:19.956Z,10.58
2018-11-03T05:35:52.530Z,11.08
2018-11-03T05:36:25.156Z,10.03
2018-11-03T05:36:57.788Z,9.53
2018-11-03T05:37:30.351Z,9.83
2018-11-03T05:38:02.984Z,10.28
2018-11-03T05:38:35.609Z,10.45
2018-11-03T05:39:09.811Z,10.43
2018-11-03T05:39:42.441Z,9.90
2018-11-03T05:40:15.052Z,11.35
2018-11-03T05:40:47.661Z,11.05
2018-11-03T05:41:20.269Z,9.85
2018-11-03T05:41:52.853Z,11.57
2018-11-03T05:42:25.503Z,9.95
2018-11-03T05:42:58.067Z,9.45
2018-11-03T05:43:30.644Z,10.05
2018-11-03T05:44:03.289Z,10.95
2018-11-03T05:44:35.900Z,11.20
2018-11-03T05:45:08.528Z,9.75
2018-11-03T05:45:41.164Z,11.03
2018-11-03T05:46:13.825Z,10.28
2018-11-03T05:46:46.439Z,10.68
2018-11-03T05:47:19.059Z,10.30
2018-11-03T05:47:51.650Z,10.28
2018-11-03T05:48:24.238Z,10.82
2018-11-03T05:48:56.862Z,11.00
2018-11-03T05:49:29.487Z,10.40
2018-11-03T05:50:02.078Z,10.60
2018-11-03T05:50:34.691Z,11.63
2018-11-03T05:51:07.325Z,10.65
2018-11-03T05:51:39.950Z,11.18
2018-11-03T05:52:12.601Z,11.97
2018-11-03T05:52:45.179Z,11.25
2018-11-03T05:53:17.796Z,10.82
2018-11-03T05:53:50.411Z,10.68
2018-11-03T05:54:23.011Z,10.95
2018-11-03T05:54:55.619Z,11.48
2018-11-03T05:55:28.203Z,11.57
2018-11-03T05:56:00.832Z,11.43
2018-11-03T05:56:33.434Z,11.12
2018-11-03T05:57:06.138Z,10.43
2018-11-03T05:57:38.767Z,10.72
2018-11-03T05:58:11.331Z,11.65
2018-11-03T05:58:43.917Z,11.00
2018-11-03T05:59:16.518Z,10.00
2018-11-03T05:59:49.107Z,10.38
2018-11-03T06:00:21.802Z,10.70
2018-11-03T06:00:54.415Z,10.78
2018-11-03T06:01:27.107Z,11.00
2018-11-03T06:01:59.747Z,10.90
2018-11-03T06:02:32.371Z,10.53
2018-11-03T06:03:05.090Z,12.15
2018-11-03T06:03:37.684Z,11.93
2018-11-03T06:04:10.276Z,11.20
2018-11-03T06:04:42.999Z,11.48
2018-11-03T06:05:15.614Z,10.90
2018-11-03T06:05:48.198Z,11.68
2018-11-03T06:06:20.795Z,11.05
2018-11-03T06:06:53.426Z,11.05
2018-11-03T06:07:26.058Z,10.30
2018-11-03T06:07:58.663Z,10.60
2018-11-03T06:08:31.305Z,10.35
2018-11-03T06:09:05.216Z,10.98
2018-11-03T06:09:37.829Z,11.60
2018-11-03T06:10:10.430Z,10.88
2018-11-03T06:10:43.007Z,10.78
2018-11-03T06:11:15.641Z,10.75
2018-11-03T06:11:48.233Z,10.38
2018-11-03T06:12:20.892Z,10.13
2018-11-03T06:12:53.511Z,10.00
2018-11-03T06:13:26.119Z,9.28
2018-11-03T06:13:58.686Z,10.23
2018-11-03T06:14:31.268Z,10.58
2018-11-03T06:15:03.942Z,9.50
2018-11-03T06:15:36.733Z,9.10
2018-11-03T06:16:09.179Z,9.65
2018-11-03T06:16:41.784Z,9.63
2018-11-03T06:17:14.363Z,9.13
2018-11-03T06:17:46.959Z,9.00
2018-11-03T06:18:19.538Z,9.63
2018-11-03T06:18:52.135Z,9.10
2018-11-03T06:19:24.758Z,9.75
2018-11-03T06:19:57.372Z,9.68
2018-11-03T06:20:29.993Z,9.80
2018-11-03T06:21:02.584Z,10.88
2018-11-03T06:21:35.174Z,10.28
2018-11-03T06:22:07.856Z,10.23
2018-11-03T06:22:40.715Z,11.08
2018-11-03T06:23:13.220Z,11.00
2018-11-03T06:23:45.739Z,11.15
2018-11-03T06:24:18.371Z,10.38
2018-11-03T06:24:50.947Z,10.45
2018-11-03T06:25:23.542Z,10.68
2018-11-03T06:25:56.238Z,10.55
2018-11-03T06:26:28.919Z,9.90
2018-11-03T06:27:01.524Z,10.58
2018-11-03T06:27:34.227Z,11.85
2018-11-03T06:28:06.927Z,10.32
2018-11-03T06:28:39.487Z,11.03
2018-11-03T06:29:12.082Z,11.85
2018-11-03T06:29:44.687Z,12.60
2018-11-03T06:30:17.302Z,13.60
2018-11-03T06:30:49.947Z,13.60
2018-11-03T06:31:22.564Z,13.35
2018-11-03T06:31:55.171Z,12.45
2018-11-03T06:32:27.789Z,11.93
2018-11-03T06:33:00.374Z,12.07
2018-11-03T06:33:32.991Z,12.50
2018-11-03T06:34:05.611Z,11.63
2018-11-03T06:34:38.205Z,11.05
2018-11-03T06:35:11.306Z,10.45
2018-11-03T06:35:43.864Z,11.50
2018-11-03T06:36:16.477Z,12.30
2018-11-03T06:36:49.127Z,12.15
2018-11-03T06:37:21.748Z,11.45
2018-11-03T06:37:54.367Z,9.93
2018-11-03T06:38:26.988Z,12.50
2018-11-03T06:38:59.619Z,11.63
2018-11-03T06:39:32.233Z,10.82
2018-11-03T06:40:05.582Z,10.38
2018-11-03T06:40:38.210Z,11.88
2018-11-03T06:41:10.850Z,10.82
2018-11-03T06:41:43.456Z,11.55
2018-11-03T06:42:16.039Z,11.12
2018-11-03T06:42:48.662Z,10.48
2018-11-03T06:43:21.243Z,10.70
2018-11-03T06:43:53.834Z,12.37
2018-11-03T06:44:26.419Z,12.65
2018-11-03T06:44:59.037Z,11.93
2018-11-03T06:45:31.631Z,11.10
2018-11-03T06:46:04.716Z,11.30
2018-11-03T06:46:37.413Z,10.68
2018-11-03T06:47:10.046Z,11.30
2018-11-03T06:47:42.611Z,10.82
2018-11-03T06:48:15.227Z,10.65
2018-11-03T06:48:47.816Z,11.00
2018-11-03T06:49:21.492Z,10.90
2018-11-03T06:49:54.119Z,10.10
2018-11-03T06:50:26.741Z,10.00
2018-11-03T06:50:59.406Z,10.18
2018-11-03T06:51:31.973Z,9.95
2018-11-03T06:52:04.976Z,10.90
2018-11-03T06:52:37.531Z,10.63
2018-11-03T06:53:10.148Z,10.38
2018-11-03T06:53:42.744Z,10.50
2018-11-03T06:54:15.350Z,11.00
2018-11-03T06:54:47.969Z,10.82
2018-11-03T06:55:20.618Z,11.18
2018-11-03T06:55:53.226Z,9.88
2018-11-03T06:56:25.818Z,10.68
2018-11-03T06:56:58.433Z,10.15
2018-11-03T06:57:31.057Z,9.60
2018-11-03T06:58:03.680Z,10.85
2018-11-03T06:58:36.259Z,11.43
2018-11-03T06:59:08.999Z,10.90
2018-11-03T06:59:41.612Z,10.63
2018-11-03T07:00:14.203Z,10.82
2018-11-03T07:00:46.787Z,10.72
2018-11-03T07:01:19.434Z,10.68
2018-11-03T07:01:52.059Z,10.18
2018-11-03T07:02:24.788Z,11.35
2018-11-03T07:02:57.393Z,11.35
2018-11-03T07:03:29.954Z,11.80
2018-11-03T07:04:02.540Z,11.28
2018-11-03T07:04:35.154Z,12.78
2018-11-03T07:05:08.559Z,12.25
2018-11-03T07:05:41.119Z,12.00
2018-11-03T07:06:13.776Z,11.68
2018-11-03T07:06:46.363Z,12.23
2018-11-03T07:07:18.995Z,11.85
2018-11-03T07:07:51.616Z,11.75
2018-11-03T07:08:24.232Z,12.13
2018-11-03T07:08:56.859Z,11.38
2018-11-03T07:09:29.439Z,12.85
2018-11-03T07:10:02.155Z,12.18
2018-11-03T07:10:34.751Z,12.90